createdAt,value
2022-10-26T00:01:30.225Z,5.90
2022-10-26T00:03:34.130Z,5.77
2022-10-26T00:05:36.265Z,8.47
2022-10-26T00:07:38.423Z,5.47
2022-10-26T00:09:40.494Z,7.60
2022-10-26T00:11:42.633Z,6.30
2022-10-26T00:13:46.020Z,5.93
2022-10-26T00:15:48.165Z,6.00
2022-10-26T00:17:51.309Z,6.33
2022-10-26T00:19:53.672Z,6.70
2022-10-26T00:21:55.769Z,6.50
2022-10-26T00:23:59.880Z,8.60
2022-10-26T00:26:02.868Z,6.73
2022-10-26T00:28:05.079Z,5.30
2022-10-26T00:30:07.835Z,6.07
2022-10-26T00:32:10.043Z,5.80
2022-10-26T00:34:13.798Z,6.60
2022-10-26T00:36:16.884Z,5.90
2022-10-26T00:38:19.061Z,6.80
2022-10-26T00:40:21.186Z,6.60
2022-10-26T00:42:24.550Z,7.00
2022-10-26T00:44:58.628Z,7.17
2022-10-26T00:47:00.717Z,6.87
2022-10-26T00:49:05.760Z,7.50
2022-10-26T00:51:19.121Z,7.37
2022-10-26T00:53:21.429Z,7.93
2022-10-26T00:55:27.439Z,7.10
2022-10-26T00:57:29.625Z,7.87
2022-10-26T00:59:31.802Z,8.50
2022-10-26T01:01:35.974Z,8.30
2022-10-26T01:03:38.372Z,9.20
2022-10-26T01:05:42.531Z,8.27
2022-10-26T01:07:46.088Z,9.10
2022-10-26T01:09:48.759Z,9.83
2022-10-26T01:11:50.806Z,9.17
2022-10-26T01:13:53.706Z,9.60
2022-10-26T01:16:15.897Z,9.53
2022-10-26T01:18:30.364Z,8.67
2022-10-26T01:21:03.588Z,10.73
2022-10-26T01:23:17.219Z,10.50
2022-10-26T01:25:51.302Z,8.90
2022-10-26T01:27:53.806Z,9.23
2022-10-26T01:30:19.269Z,9.13
2022-10-26T01:32:47.869Z,10.60
2022-10-26T01:35:29.965Z,10.63
2022-10-26T01:37:37.239Z,13.80
2022-10-26T01:39:49.129Z,11.87
2022-10-26T01:41:56.453Z,12.93
2022-10-26T01:44:05.371Z,13.47
2022-10-26T01:46:08.410Z,12.43
2022-10-26T01:48:14.122Z,14.23
2022-10-26T01:50:17.757Z,14.53
2022-10-26T01:52:20.415Z,14.30
2022-10-26T01:54:22.497Z,15.67
2022-10-26T01:56:27.677Z,15.57
2022-10-26T01:58:38.843Z,15.00
2022-10-26T02:00:44.867Z,13.83
2022-10-26T02:03:16.167Z,15.50
2022-10-26T02:05:38.585Z,11.70
2022-10-26T02:08:08.805Z,12.27
2022-10-26T02:10:27.294Z,13.37
2022-10-26T02:12:42.209Z,11.60
2022-10-26T02:14:50.371Z,15.90
2022-10-26T02:16:58.289Z,11.80
2022-10-26T02:19:03.996Z,11.17
2022-10-26T02:21:10.524Z,15.83
2022-10-26T02:23:13.680Z,30.93
2022-10-26T02:25:29.001Z,11.60
2022-10-26T02:27:34.640Z,11.67
2022-10-26T02:29:37.121Z,10.13
2022-10-26T02:31:41.601Z,10.97
2022-10-26T02:33:51.583Z,12.67
2022-10-26T02:35:54.606Z,10.60
2022-10-26T02:37:57.850Z,11.93
2022-10-26T02:40:03.516Z,11.80
2022-10-26T02:42:07.273Z,10.93
2022-10-26T02:44:23.497Z,11.20
2022-10-26T02:46:27.118Z,11.27
2022-10-26T02:48:29.384Z,15.10
2022-10-26T02:50:42.465Z,11.00
2022-10-26T02:53:06.414Z,10.43
2022-10-26T02:55:15.367Z,9.53
2022-10-26T02:57:20.192Z,9.67
2022-10-26T02:59:24.150Z,17.43
2022-10-26T03:01:28.060Z,10.00
2022-10-26T03:03:30.243Z,10.70
2022-10-26T03:05:32.962Z,10.73
2022-10-26T03:07:35.081Z,11.00
2022-10-26T03:09:37.236Z,11.00
2022-10-26T03:11:39.356Z,11.53
2022-10-26T03:13:41.460Z,10.67
2022-10-26T03:15:43.695Z,10.20
2022-10-26T03:17:45.911Z,10.07
2022-10-26T03:19:48.074Z,11.93
2022-10-26T03:21:50.153Z,10.17
2022-10-26T03:23:52.242Z,10.77
2022-10-26T03:26:00.113Z,10.73
2022-10-26T03:28:04.248Z,10.43
2022-10-26T03:30:06.944Z,10.83
2022-10-26T03:32:09.080Z,12.53
2022-10-26T03:34:11.155Z,9.43
2022-10-26T03:36:13.202Z,9.40
2022-10-26T03:38:16.164Z,9.97
2022-10-26T03:40:18.354Z,9.73
2022-10-26T03:42:20.425Z,8.60
2022-10-26T03:44:22.869Z,9.30
2022-10-26T03:46:24.922Z,10.97
2022-10-26T03:48:26.985Z,9.47
2022-10-26T03:50:29.078Z,10.37
2022-10-26T03:52:31.149Z,11.30
2022-10-26T03:54:33.305Z,10.40
2022-10-26T03:56:35.464Z,9.00
2022-10-26T03:58:37.548Z,10.10
2022-10-26T04:00:39.646Z,10.40
2022-10-26T04:02:48.891Z,8.67
2022-10-26T04:04:51.197Z,8.63
2022-10-26T04:06:53.283Z,10.13
2022-10-26T04:09:01.886Z,9.90
2022-10-26T04:11:04.837Z,9.57
2022-10-26T04:13:07.102Z,11.43
2022-10-26T04:15:10.256Z,11.17
2022-10-26T04:17:12.381Z,9.53
2022-10-26T04:19:14.545Z,10.40
2022-10-26T04:21:16.638Z,10.90
2022-10-26T04:23:19.642Z,11.37
2022-10-26T04:25:21.796Z,11.77
2022-10-26T04:27:23.994Z,10.80
2022-10-26T04:29:26.154Z,13.63
2022-10-26T04:31:28.203Z,11.87
2022-10-26T04:33:30.323Z,11.70
2022-10-26T04:35:32.869Z,12.97
2022-10-26T04:37:34.957Z,17.50
2022-10-26T04:39:37.187Z,12.13
2022-10-26T04:41:39.273Z,10.13
2022-10-26T04:43:41.330Z,11.63
2022-10-26T04:45:43.578Z,11.20
2022-10-26T04:47:45.641Z,12.77
2022-10-26T04:49:47.699Z,11.77
2022-10-26T04:51:49.766Z,15.60
2022-10-26T04:53:54.188Z,14.07
2022-10-26T04:55:57.425Z,22.20
2022-10-26T04:58:01.331Z,21.13
2022-10-26T05:00:05.330Z,19.10
2022-10-26T05:02:07.533Z,16.70
2022-10-26T05:04:09.809Z,16.27
2022-10-26T05:06:11.936Z,23.67
2022-10-26T05:08:14.741Z,15.53
2022-10-26T05:10:17.117Z,17.10
2022-10-26T05:12:19.368Z,14.23
2022-10-26T05:14:21.526Z,14.97
2022-10-26T05:16:23.676Z,13.27
2022-10-26T05:18:26.436Z,14.27
2022-10-26T05:20:31.191Z,12.93
2022-10-26T05:22:33.346Z,12.40
2022-10-26T05:24:35.641Z,14.60
2022-10-26T05:26:37.795Z,12.50
2022-10-26T05:28:39.868Z,17.57
2022-10-26T05:30:43.382Z,11.90
2022-10-26T05:32:45.508Z,15.23
2022-10-26T05:34:48.096Z,11.87
2022-10-26T05:36:53.346Z,11.40
2022-10-26T05:38:59.544Z,12.23
2022-10-26T05:41:01.836Z,10.60
2022-10-26T05:43:04.499Z,11.27
2022-10-26T05:45:06.976Z,10.70
2022-10-26T05:47:09.164Z,11.63
2022-10-26T05:49:11.322Z,11.47
2022-10-26T05:51:14.299Z,11.23
2022-10-26T05:53:16.488Z,12.07
2022-10-26T05:55:19.332Z,11.90
2022-10-26T05:57:21.677Z,11.90
2022-10-26T05:59:24.057Z,11.13
2022-10-26T06:01:34.940Z,12.30
2022-10-26T06:03:55.244Z,11.03
2022-10-26T06:06:00.735Z,12.30
2022-10-26T06:08:09.695Z,9.83
2022-10-26T06:10:12.573Z,9.90
2022-10-26T06:12:18.434Z,10.30
2022-10-26T06:14:22.061Z,11.00
2022-10-26T06:16:35.123Z,10.50
2022-10-26T06:19:10.543Z,8.83
2022-10-26T06:21:25.296Z,9.67
2022-10-26T06:23:52.275Z,10.90
2022-10-26T06:25:59.820Z,9.33
2022-10-26T06:28:34.128Z,11.10
2022-10-26T06:30:36.302Z,9.53
2022-10-26T06:32:39.874Z,10.10
2022-10-26T06:34:47.066Z,9.27
2022-10-26T06:36:50.082Z,11.23
2022-10-26T06:38:55.904Z,10.00
2022-10-26T06:40:59.119Z,9.60
2022-10-26T06:43:01.559Z,9.10
2022-10-26T06:45:04.128Z,10.87
2022-10-26T06:47:07.966Z,10.00
2022-10-26T06:49:12.636Z,10.83
2022-10-26T06:51:16.126Z,10.10
2022-10-26T06:55:45.762Z,8.53
2022-10-26T06:57:48.238Z,9.23
2022-10-26T07:00:21.763Z,9.10
2022-10-26T07:02:24.533Z,8.90
2022-10-26T07:04:26.690Z,8.90
2022-10-26T07:06:28.810Z,8.07
2022-10-26T07:08:31.846Z,8.87
2022-10-26T07:10:35.319Z,9.70
2022-10-26T07:12:37.773Z,10.03
2022-10-26T07:14:40.018Z,8.90
2022-10-26T07:16:42.189Z,9.97
2022-10-26T07:18:44.261Z,8.70
2022-10-26T07:20:46.456Z,9.70
2022-10-26T07:22:55.680Z,9.97
2022-10-26T07:25:00.566Z,8.60
2022-10-26T07:27:05.659Z,9.10
2022-10-26T07:29:07.793Z,10.83
2022-10-26T07:31:10.177Z,8.10
2022-10-26T07:33:14.057Z,8.70
2022-10-26T07:35:16.250Z,8.53
2022-10-26T07:37:18.491Z,7.13
2022-10-26T07:39:20.710Z,6.57
2022-10-26T07:41:22.785Z,6.33
2022-10-26T07:43:24.856Z,6.90
2022-10-26T07:45:28.451Z,6.50
2022-10-26T07:47:30.497Z,6.87
2022-10-26T07:49:32.666Z,5.93
2022-10-26T07:51:34.878Z,6.90
2022-10-26T07:53:37.048Z,7.70
2022-10-26T07:55:39.557Z,12.23
2022-10-26T07:57:41.667Z,15.17
2022-10-26T07:59:43.977Z,12.57
2022-10-26T08:01:46.159Z,9.40
2022-10-26T08:03:48.366Z,6.73
2022-10-26T08:05:51.415Z,6.40
2022-10-26T08:07:53.466Z,5.70
2022-10-26T08:09:55.649Z,5.50
2022-10-26T08:11:57.803Z,5.30
2022-10-26T08:13:59.944Z,5.27
2022-10-26T08:16:05.432Z,4.80
2022-10-26T08:18:07.488Z,4.83
2022-10-26T08:20:10.299Z,5.43
2022-10-26T08:22:12.423Z,5.37
2022-10-26T08:24:14.540Z,5.07
2022-10-26T08:26:18.076Z,5.57
2022-10-26T08:28:20.126Z,5.77
2022-10-26T08:30:22.330Z,5.90
2022-10-26T08:32:24.522Z,5.73
2022-10-26T08:34:26.641Z,5.43
2022-10-26T08:36:29.014Z,5.67
2022-10-26T08:38:31.501Z,4.93
2022-10-26T08:40:37.233Z,4.90
2022-10-26T08:42:46.346Z,4.43
2022-10-26T08:44:51.569Z,4.30
2022-10-26T08:46:58.193Z,3.90
2022-10-26T08:49:19.328Z,4.60
2022-10-26T08:51:35.551Z,4.10
2022-10-26T08:53:42.880Z,3.70
2022-10-26T08:55:48.238Z,3.50
2022-10-26T08:57:50.871Z,4.10
2022-10-26T08:59:56.902Z,4.10
2022-10-26T09:01:59.172Z,5.67
2022-10-26T09:04:03.265Z,4.80
2022-10-26T09:06:17.544Z,4.80
2022-10-26T09:08:25.543Z,4.43
2022-10-26T09:10:45.615Z,3.40
2022-10-26T09:13:02.489Z,3.50
2022-10-26T09:15:29.332Z,3.90
2022-10-26T09:18:06.768Z,3.50
2022-10-26T09:20:48.644Z,3.33
2022-10-26T09:22:59.736Z,3.10
2022-10-26T09:25:12.933Z,3.27
2022-10-26T09:27:30.289Z,4.03
2022-10-26T09:29:37.003Z,3.73
2022-10-26T09:31:43.363Z,3.13
2022-10-26T09:33:45.878Z,3.60
2022-10-26T09:35:56.201Z,3.40
2022-10-26T09:38:09.147Z,3.20
2022-10-26T09:40:11.202Z,3.33
2022-10-26T09:42:22.724Z,3.40
2022-10-26T09:44:30.867Z,3.43
2022-10-26T09:46:58.750Z,3.33
2022-10-26T09:49:08.402Z,4.10
2022-10-26T09:51:11.240Z,3.57
2022-10-26T09:53:13.405Z,3.60
2022-10-26T09:55:15.829Z,3.10
2022-10-26T09:57:19.885Z,3.40
2022-10-26T09:59:23.523Z,2.57
2022-10-26T10:01:36.832Z,3.13
2022-10-26T10:03:41.947Z,3.30
2022-10-26T10:05:52.751Z,3.70
2022-10-26T10:08:14.696Z,3.73
2022-10-26T10:10:22.029Z,3.80
2022-10-26T10:12:25.398Z,2.87
2022-10-26T10:14:29.705Z,3.20
2022-10-26T10:16:31.982Z,2.80
2022-10-26T10:18:35.507Z,3.53
2022-10-26T10:20:37.623Z,3.77
2022-10-26T10:22:56.155Z,3.77
2022-10-26T10:25:03.064Z,2.90
2022-10-26T10:27:18.549Z,3.40
2022-10-26T10:29:25.621Z,3.40
2022-10-26T10:31:30.244Z,3.13
2022-10-26T10:33:38.256Z,3.30
2022-10-26T10:35:48.325Z,3.30
2022-10-26T10:37:50.950Z,3.10
2022-10-26T10:40:07.513Z,3.70
2022-10-26T10:42:21.692Z,2.97
2022-10-26T10:44:29.893Z,3.37
2022-10-26T10:46:32.078Z,3.23
2022-10-26T10:48:37.140Z,3.70
2022-10-26T10:51:12.572Z,3.20
2022-10-26T10:53:32.881Z,3.10
2022-10-26T10:55:35.152Z,3.40
2022-10-26T10:57:50.782Z,3.70
2022-10-26T11:00:01.291Z,3.47
2022-10-26T11:02:06.809Z,3.43
2022-10-26T11:04:34.435Z,3.67
2022-10-26T11:06:38.812Z,2.90
2022-10-26T11:09:03.100Z,3.30
2022-10-26T11:11:26.217Z,4.20
2022-10-26T11:13:35.705Z,3.67
2022-10-26T11:15:40.021Z,3.33
2022-10-26T11:17:58.839Z,3.27
2022-10-26T11:20:12.551Z,2.57
2022-10-26T11:22:22.461Z,2.97
2022-10-26T11:24:27.021Z,2.97
2022-10-26T11:26:34.396Z,3.30
2022-10-26T11:28:53.766Z,2.80
2022-10-26T11:31:00.532Z,3.50
2022-10-26T11:33:24.800Z,3.40
2022-10-26T11:35:37.774Z,2.87
2022-10-26T11:37:52.863Z,3.07
2022-10-26T11:40:23.222Z,2.90
2022-10-26T11:42:37.729Z,3.63
2022-10-26T11:44:46.240Z,2.97
2022-10-26T11:46:56.425Z,2.63
2022-10-26T11:49:19.526Z,3.20
2022-10-26T11:51:30.810Z,2.77
2022-10-26T11:53:40.262Z,2.57
2022-10-26T11:55:42.628Z,2.90
2022-10-26T11:57:46.714Z,2.97
2022-10-26T11:59:53.621Z,3.20
2022-10-26T12:02:10.327Z,3.13
2022-10-26T12:04:12.781Z,2.90
2022-10-26T12:06:15.653Z,2.90
2022-10-26T12:08:24.860Z,3.23
2022-10-26T12:10:29.921Z,2.50
2022-10-26T12:12:51.592Z,2.97
2022-10-26T12:15:00.120Z,3.47
2022-10-26T12:17:10.222Z,3.23
2022-10-26T12:21:34.372Z,3.30
2022-10-26T12:23:55.622Z,3.77
2022-10-26T12:26:28.599Z,3.87
2022-10-26T12:28:36.939Z,4.20
2022-10-26T12:30:39.112Z,4.10
2022-10-26T12:32:43.739Z,3.40
2022-10-26T12:34:46.364Z,3.20
2022-10-26T12:36:54.915Z,4.00
2022-10-26T12:38:58.616Z,3.50
2022-10-26T12:41:07.444Z,4.40
2022-10-26T12:43:18.317Z,5.73
2022-10-26T12:45:21.282Z,6.60
2022-10-26T12:47:29.165Z,5.00
2022-10-26T12:50:07.982Z,9.03
2022-10-26T12:52:26.514Z,3.90
2022-10-26T12:54:44.871Z,4.00
2022-10-26T12:56:56.917Z,3.73
2022-10-26T12:59:03.618Z,3.93
2022-10-26T13:01:06.710Z,3.33
2022-10-26T13:03:24.247Z,4.07
2022-10-26T13:05:44.949Z,5.73
2022-10-26T13:07:47.225Z,5.83
2022-10-26T13:10:01.444Z,5.77
2022-10-26T13:12:03.968Z,5.40
2022-10-26T13:14:14.469Z,4.30
2022-10-26T13:16:16.753Z,5.50
2022-10-26T13:18:20.281Z,3.90
2022-10-26T13:20:22.244Z,3.80
2022-10-26T13:22:24.815Z,3.97
2022-10-26T13:24:29.706Z,3.67
2022-10-26T13:26:32.928Z,3.83
2022-10-26T13:28:37.549Z,4.10
2022-10-26T13:30:46.060Z,4.20
2022-10-26T13:32:52.174Z,4.00
2022-10-26T13:34:56.538Z,2.90
2022-10-26T13:37:07.260Z,2.80
2022-10-26T13:39:18.288Z,3.90
2022-10-26T13:41:30.575Z,3.00
2022-10-26T13:43:35.677Z,3.00
2022-10-26T13:45:46.726Z,2.87
2022-10-26T13:48:07.849Z,3.70
2022-10-26T13:50:18.447Z,2.97
2022-10-26T13:52:28.633Z,5.43
2022-10-26T13:54:44.265Z,2.60
2022-10-26T13:56:55.976Z,2.50
2022-10-26T13:59:02.601Z,3.07
2022-10-26T14:01:14.153Z,2.70
2022-10-26T14:03:22.702Z,2.83
2022-10-26T14:05:24.750Z,3.30
2022-10-26T14:07:52.746Z,2.60
2022-10-26T14:09:58.413Z,2.50
2022-10-26T14:12:01.863Z,2.60
2022-10-26T14:14:04.657Z,4.10
2022-10-26T14:16:12.943Z,3.30
2022-10-26T14:18:23.649Z,5.77
2022-10-26T14:20:26.517Z,5.27
2022-10-26T14:22:30.070Z,3.30
2022-10-26T14:24:48.226Z,3.60
2022-10-26T14:26:50.782Z,3.00
2022-10-26T14:28:55.641Z,4.70
2022-10-26T14:31:20.587Z,3.90
2022-10-26T14:33:28.552Z,5.67
2022-10-26T14:35:36.216Z,4.30
2022-10-26T14:37:54.469Z,4.93
2022-10-26T14:39:56.537Z,4.37
2022-10-26T14:42:01.574Z,4.60
2022-10-26T14:44:03.790Z,4.67
2022-10-26T14:46:06.108Z,3.93
2022-10-26T14:48:24.036Z,3.30
2022-10-26T14:50:31.934Z,3.60
2022-10-26T14:52:36.047Z,4.47
2022-10-26T14:54:38.033Z,3.50
2022-10-26T14:56:41.048Z,3.20
2022-10-26T14:58:43.020Z,3.27
2022-10-26T15:00:45.902Z,3.33
2022-10-26T15:02:49.788Z,4.00
2022-10-26T15:05:01.055Z,3.20
2022-10-26T15:07:16.457Z,3.27
2022-10-26T15:09:42.954Z,3.10
2022-10-26T15:11:44.945Z,3.67
2022-10-26T15:13:46.931Z,4.30
2022-10-26T15:15:50.483Z,3.40
2022-10-26T15:17:56.220Z,3.90
2022-10-26T15:20:03.559Z,3.63
2022-10-26T15:22:05.535Z,3.60
2022-10-26T15:24:34.654Z,3.90
2022-10-26T15:26:43.090Z,4.90
2022-10-26T15:28:45.268Z,3.83
2022-10-26T15:31:04.731Z,4.30
2022-10-26T15:33:21.986Z,4.40
2022-10-26T15:35:24.279Z,4.40
2022-10-26T15:37:26.411Z,3.70
2022-10-26T15:39:28.769Z,4.70
2022-10-26T15:41:32.510Z,3.47
2022-10-26T15:43:34.629Z,3.60
2022-10-26T15:45:45.568Z,3.80
2022-10-26T15:47:51.810Z,3.67
2022-10-26T15:49:53.793Z,3.60
2022-10-26T15:51:56.063Z,3.70
2022-10-26T15:53:58.961Z,3.83
2022-10-26T15:56:00.977Z,5.37
2022-10-26T15:58:02.989Z,3.83
2022-10-26T16:00:07.304Z,3.83
2022-10-26T16:02:16.340Z,3.90
2022-10-26T16:04:18.460Z,4.20
2022-10-26T16:06:29.876Z,4.03
2022-10-26T16:08:31.848Z,3.90
2022-10-26T16:10:33.993Z,3.70
2022-10-26T16:12:35.898Z,4.67
2022-10-26T16:14:53.265Z,3.77
2022-10-26T16:17:00.359Z,3.90
2022-10-26T16:19:25.666Z,5.43
2022-10-26T16:21:25.071Z,5.40
2022-10-26T16:23:27.221Z,5.03
2022-10-26T16:25:29.217Z,4.70
2022-10-26T16:27:31.246Z,4.63
2022-10-26T16:29:33.315Z,4.70
2022-10-26T16:31:35.294Z,4.30
2022-10-26T16:33:37.278Z,6.30
2022-10-26T16:35:39.476Z,4.40
2022-10-26T16:37:41.618Z,4.43
2022-10-26T16:39:43.552Z,6.47
2022-10-26T16:41:45.544Z,4.17
2022-10-26T16:43:47.605Z,4.50
2022-10-26T16:45:49.628Z,4.50
2022-10-26T16:47:52.056Z,4.00
2022-10-26T16:49:54.228Z,5.67
2022-10-26T16:51:57.497Z,6.00
2022-10-26T16:53:59.541Z,5.37
2022-10-26T16:56:13.133Z,6.70
2022-10-26T16:58:15.124Z,5.60
2022-10-26T17:00:17.401Z,5.23
2022-10-26T17:02:19.502Z,5.10
2022-10-26T17:04:21.639Z,4.87
2022-10-26T17:06:23.652Z,4.67
2022-10-26T17:08:26.678Z,4.90
2022-10-26T17:10:28.720Z,5.40
2022-10-26T17:12:30.840Z,5.40
2022-10-26T17:14:32.880Z,5.27
2022-10-26T17:16:37.410Z,5.20
2022-10-26T17:18:43.150Z,5.60
2022-10-26T17:20:51.740Z,6.30
2022-10-26T17:22:53.671Z,5.80
2022-10-26T17:24:56.038Z,6.93
2022-10-26T17:26:57.963Z,6.83
2022-10-26T17:28:59.981Z,5.83
2022-10-26T17:31:03.028Z,7.13
2022-10-26T17:33:05.013Z,10.37
2022-10-26T17:35:07.178Z,8.37
2022-10-26T17:37:09.159Z,9.10
2022-10-26T17:39:11.217Z,12.10
2022-10-26T17:41:14.457Z,13.20
2022-10-26T17:43:16.398Z,11.70
2022-10-26T17:45:18.394Z,11.83
2022-10-26T17:47:20.416Z,11.33
2022-10-26T17:49:24.920Z,12.60
2022-10-26T17:51:30.149Z,10.80
2022-10-26T17:53:32.330Z,10.50
2022-10-26T17:55:34.295Z,11.70
2022-10-26T17:57:36.315Z,12.20
2022-10-26T17:59:38.273Z,11.17
2022-10-26T18:01:40.347Z,10.97
2022-10-26T18:03:42.572Z,11.10
2022-10-26T18:05:51.368Z,10.20
2022-10-26T18:07:53.380Z,9.80
2022-10-26T18:09:56.983Z,8.90
2022-10-26T18:12:03.727Z,8.03
2022-10-26T18:14:05.699Z,9.87
2022-10-26T18:16:10.099Z,8.83
2022-10-26T18:18:12.652Z,8.27
2022-10-26T18:20:14.948Z,8.40
2022-10-26T18:22:17.441Z,9.00
2022-10-26T18:24:19.530Z,8.07
2022-10-26T18:26:26.861Z,7.40
2022-10-26T18:28:28.971Z,8.30
2022-10-26T18:30:30.869Z,7.57
2022-10-26T18:32:32.828Z,7.70
2022-10-26T18:34:34.840Z,6.60
2022-10-26T18:38:42.694Z,6.40
2022-10-26T18:40:51.742Z,7.40
2022-10-26T18:42:53.733Z,6.40
2022-10-26T18:45:00.648Z,6.90
2022-10-26T18:47:02.645Z,6.20
2022-10-26T18:49:06.295Z,6.10
2022-10-26T18:51:13.422Z,6.90
2022-10-26T18:53:16.403Z,6.70
2022-10-26T18:55:18.541Z,6.50
2022-10-26T18:57:24.613Z,6.80
2022-10-26T18:59:26.639Z,6.77
2022-10-26T19:01:35.915Z,7.60
2022-10-26T19:03:38.841Z,6.50
2022-10-26T19:05:41.433Z,6.83
2022-10-26T19:07:43.380Z,6.50
2022-10-26T19:09:45.319Z,6.37
2022-10-26T19:11:47.423Z,7.30
2022-10-26T19:13:58.285Z,7.10
2022-10-26T19:16:03.402Z,6.17
2022-10-26T19:18:05.506Z,7.93
2022-10-26T19:20:07.975Z,6.30
2022-10-26T19:22:11.046Z,6.20
2022-10-26T19:24:15.482Z,5.97
2022-10-26T19:26:20.681Z,5.90
2022-10-26T19:28:22.706Z,6.47
2022-10-26T19:30:24.655Z,7.30
2022-10-26T19:32:28.369Z,6.77
2022-10-26T19:34:30.330Z,6.00
2022-10-26T19:36:32.961Z,6.30
2022-10-26T19:38:34.951Z,5.90
2022-10-26T19:40:36.890Z,6.60
2022-10-26T19:42:38.861Z,5.20
2022-10-26T19:44:40.844Z,6.37
2022-10-26T19:46:43.562Z,6.93
2022-10-26T19:48:53.129Z,6.23
2022-10-26T19:50:56.136Z,5.93
2022-10-26T19:52:58.056Z,5.70
2022-10-26T19:55:00.210Z,6.37
2022-10-26T19:57:02.537Z,5.17
2022-10-26T19:59:05.287Z,6.30
2022-10-26T20:01:08.333Z,6.10
2022-10-26T20:03:11.308Z,5.73
2022-10-26T20:05:13.236Z,5.80
2022-10-26T20:07:15.760Z,5.90
2022-10-26T20:09:18.915Z,6.17
2022-10-26T20:11:20.930Z,6.20
2022-10-26T20:13:23.598Z,6.13
2022-10-26T20:15:25.550Z,6.87
2022-10-26T20:17:28.519Z,6.10
2022-10-26T20:19:30.889Z,6.90
2022-10-26T20:21:32.928Z,5.67
2022-10-26T20:23:34.936Z,6.40
2022-10-26T20:25:38.199Z,7.40
2022-10-26T20:27:41.882Z,6.83
2022-10-26T20:29:43.846Z,7.20
2022-10-26T20:31:45.788Z,7.50
2022-10-26T20:33:52.594Z,7.13
2022-10-26T20:36:00.550Z,6.23
2022-10-26T20:38:03.394Z,6.20
2022-10-26T20:40:06.085Z,6.97
2022-10-26T20:42:14.250Z,7.50
2022-10-26T20:44:23.387Z,6.70
2022-10-26T20:46:27.138Z,7.50
2022-10-26T20:48:29.387Z,7.40
2022-10-26T20:50:31.688Z,7.27
2022-10-26T20:52:52.152Z,7.30
2022-10-26T20:55:01.345Z,7.47
2022-10-26T20:57:05.245Z,6.73
2022-10-26T20:59:13.393Z,7.17
2022-10-26T21:01:18.667Z,7.67
2022-10-26T21:03:20.859Z,7.00
2022-10-26T21:05:23.095Z,7.43
2022-10-26T21:07:25.088Z,7.47
2022-10-26T21:09:27.642Z,7.00
2022-10-26T21:11:30.499Z,7.80
2022-10-26T21:13:32.437Z,7.97
2022-10-26T21:15:35.240Z,8.23
2022-10-26T21:17:37.239Z,7.83
2022-10-26T21:19:39.221Z,7.47
2022-10-26T21:21:41.373Z,8.27
2022-10-26T21:23:43.348Z,7.40
2022-10-26T21:25:45.273Z,8.80
2022-10-26T21:27:47.584Z,8.27
2022-10-26T21:29:49.670Z,8.10
2022-10-26T21:31:51.652Z,7.60
2022-10-26T21:33:53.681Z,8.33
2022-10-26T21:35:55.621Z,8.13
2022-10-26T21:37:57.577Z,7.83
2022-10-26T21:39:59.570Z,7.93
2022-10-26T21:42:02.926Z,8.30
2022-10-26T21:44:09.337Z,8.93
2022-10-26T21:46:19.181Z,9.53
2022-10-26T21:48:21.132Z,9.00
2022-10-26T21:50:23.005Z,9.50
2022-10-26T21:52:25.074Z,9.10
2022-10-26T21:54:27.084Z,9.00
2022-10-26T21:56:29.035Z,11.00
2022-10-26T21:58:31.242Z,10.50
2022-10-26T22:00:33.311Z,8.63
2022-10-26T22:02:35.221Z,9.30
2022-10-26T22:04:38.655Z,9.87
2022-10-26T22:06:40.774Z,10.37
2022-10-26T22:08:43.133Z,9.67
2022-10-26T22:10:45.366Z,8.07
2022-10-26T22:12:47.464Z,9.50
2022-10-26T22:14:49.537Z,8.77
2022-10-26T22:16:51.588Z,9.23
2022-10-26T22:18:55.156Z,9.57
2022-10-26T22:21:00.300Z,8.17
2022-10-26T22:25:07.510Z,9.67
2022-10-26T22:27:09.585Z,8.27
2022-10-26T22:29:11.667Z,8.53
2022-10-26T22:31:21.752Z,8.47
2022-10-26T22:33:23.989Z,8.47
2022-10-26T22:35:29.417Z,8.30
2022-10-26T22:37:32.088Z,7.83
2022-10-26T22:39:34.419Z,7.83
2022-10-26T22:41:36.566Z,8.07
2022-10-26T22:43:38.791Z,8.17
2022-10-26T22:45:40.880Z,7.17
2022-10-26T22:47:42.934Z,7.80
2022-10-26T22:49:45.050Z,9.07
2022-10-26T22:51:47.139Z,8.50
2022-10-26T22:53:56.790Z,7.40
2022-10-26T22:55:59.128Z,7.47
2022-10-26T22:58:01.197Z,7.30
2022-10-26T23:00:03.679Z,7.70
2022-10-26T23:02:05.926Z,7.70
2022-10-26T23:04:08.252Z,7.63
2022-10-26T23:06:12.977Z,7.90
2022-10-26T23:08:15.170Z,6.87
2022-10-26T23:10:17.373Z,7.07
2022-10-26T23:12:19.512Z,6.97
2022-10-26T23:14:21.615Z,7.93
2022-10-26T23:16:23.782Z,8.17
2022-10-26T23:18:25.834Z,7.30
2022-10-26T23:20:28.180Z,6.50
2022-10-26T23:22:30.261Z,6.67
2022-10-26T23:24:32.353Z,7.70
2022-10-26T23:26:34.446Z,7.27
2022-10-26T23:28:36.954Z,7.20
2022-10-26T23:30:39.054Z,6.63
2022-10-26T23:32:41.172Z,6.70
2022-10-26T23:34:43.261Z,8.13
2022-10-26T23:36:45.665Z,6.90
2022-10-26T23:38:48.211Z,6.23
2022-10-26T23:40:57.640Z,6.87
2022-10-26T23:42:59.921Z,7.10
2022-10-26T23:45:01.988Z,6.50
2022-10-26T23:47:04.084Z,6.60
2022-10-26T23:49:06.133Z,6.70
2022-10-26T23:51:08.227Z,7.37
2022-10-26T23:53:11.367Z,6.80
2022-10-26T23:55:13.575Z,7.87
2022-10-26T23:57:15.743Z,7.37
2022-10-26T23:59:19.531Z,7.37
